createdAt,value
2018-07-20T00:01:57.137Z,101868.16
2018-07-20T00:04:25.935Z,101865.16
2018-07-20T00:06:55.726Z,101867.55
2018-07-20T00:09:24.468Z,101869.66
2018-07-20T00:11:53.311Z,101866.05
2018-07-20T00:14:22.097Z,101867.11
2018-07-20T00:16:50.984Z,101860.84
2018-07-20T00:19:19.819Z,101855.12
2018-07-20T00:21:48.677Z,101852.83
2018-07-20T00:24:17.708Z,101857.75
2018-07-20T00:26:46.499Z,101854.72
2018-07-20T00:29:15.264Z,101856.06
2018-07-20T00:31:44.172Z,101853.97
2018-07-20T00:34:12.907Z,101857.63
2018-07-20T00:36:41.695Z,101850.17
2018-07-20T00:39:11.206Z,101852.11
2018-07-20T00:41:40.247Z,101850.37
2018-07-20T00:44:09.170Z,101845.05
2018-07-20T00:46:37.998Z,101854.03
2018-07-20T00:49:06.792Z,101851.03
2018-07-20T00:51:35.565Z,101847.33
2018-07-20T00:54:04.544Z,101847.63
2018-07-20T00:56:33.195Z,101845.09
2018-07-20T00:59:02.016Z,101847.63
2018-07-20T01:01:30.807Z,101847.00
2018-07-20T01:03:59.617Z,101840.20
2018-07-20T01:06:28.384Z,101844.86
2018-07-20T01:08:57.064Z,101840.78
2018-07-20T01:11:25.875Z,101842.48
2018-07-20T01:13:54.707Z,101838.72
2018-07-20T01:16:23.715Z,101834.99
2018-07-20T01:18:52.588Z,101828.16
2018-07-20T01:21:21.434Z,101836.30
2018-07-20T01:23:50.248Z,101842.11
2018-07-20T01:26:19.004Z,101843.16
2018-07-20T01:28:47.834Z,101845.86
2018-07-20T01:31:16.623Z,101837.73
2018-07-20T01:33:45.519Z,101836.59
2018-07-20T01:36:14.283Z,101834.55
2018-07-20T01:38:43.083Z,101834.73
2018-07-20T01:41:11.831Z,101832.98
2018-07-20T01:43:40.663Z,101829.58
2018-07-20T01:46:10.283Z,101831.66
2018-07-20T01:48:39.159Z,101820.78
2018-07-20T01:51:07.951Z,101827.15
2018-07-20T01:53:36.711Z,101822.72
2018-07-20T01:56:05.570Z,101823.14
2018-07-20T01:58:34.407Z,101819.92
2018-07-20T02:01:03.254Z,101821.86
2018-07-20T02:03:31.849Z,101819.83
2018-07-20T02:06:07.363Z,101818.25
2018-07-20T02:08:36.251Z,101814.40
2018-07-20T02:11:09.600Z,101816.66
2018-07-20T02:13:38.411Z,101823.45
2018-07-20T02:16:07.285Z,101819.73
2018-07-20T02:18:36.135Z,101826.83
2018-07-20T02:21:05.019Z,101819.30
2018-07-20T02:23:33.785Z,101818.78
2018-07-20T02:26:03.196Z,101821.41
2018-07-20T02:28:31.976Z,101807.50
2018-07-20T02:31:00.796Z,101820.18
2018-07-20T02:33:29.688Z,101816.36
2018-07-20T02:35:58.586Z,101819.92
2018-07-20T02:38:27.408Z,101823.85
2018-07-20T02:40:56.232Z,101815.22
2018-07-20T02:43:25.007Z,101824.45
2018-07-20T02:45:53.749Z,101818.45
2018-07-20T02:48:22.326Z,101824.56
2018-07-20T02:50:51.104Z,101822.56
2018-07-20T02:53:19.949Z,101820.44
2018-07-20T02:55:48.707Z,101820.59
2018-07-20T02:58:17.728Z,101822.02
2018-07-20T03:00:46.518Z,101819.69
2018-07-20T03:03:15.327Z,101814.72
2018-07-20T03:05:44.091Z,101820.37
2018-07-20T03:08:12.915Z,101815.73
2018-07-20T03:10:41.742Z,101812.06
2018-07-20T03:13:10.539Z,101805.67
2018-07-20T03:15:39.145Z,101809.31
2018-07-20T03:18:07.999Z,101812.17
2018-07-20T03:20:36.771Z,101813.88
2018-07-20T03:23:05.911Z,101806.09
2018-07-20T03:25:34.659Z,101814.62
2018-07-20T03:28:03.462Z,101805.84
2018-07-20T03:30:32.248Z,101811.45
2018-07-20T03:33:01.119Z,101810.92
2018-07-20T03:35:29.925Z,101809.54
2018-07-20T03:37:58.781Z,101799.95
2018-07-20T03:40:27.696Z,101799.36
2018-07-20T03:42:56.584Z,101803.69
2018-07-20T03:45:31.541Z,101795.52
2018-07-20T03:48:00.388Z,101801.51
2018-07-20T03:50:29.183Z,101803.14
2018-07-20T03:52:57.957Z,101796.81
2018-07-20T03:55:26.852Z,101790.44
2018-07-20T03:57:55.667Z,101794.29
2018-07-20T04:00:24.516Z,101792.48
2018-07-20T04:02:53.257Z,101790.05
2018-07-20T04:05:22.082Z,101787.84
2018-07-20T04:07:50.856Z,101797.16
2018-07-20T04:10:19.747Z,101795.78
2018-07-20T04:12:48.599Z,101789.60
2018-07-20T04:15:17.418Z,101789.56
2018-07-20T04:17:46.255Z,101790.86
2018-07-20T04:20:16.072Z,101785.93
2018-07-20T04:22:44.927Z,101781.92
2018-07-20T04:25:13.843Z,101787.06
2018-07-20T04:27:42.620Z,101786.86
2018-07-20T04:30:13.778Z,101779.84
2018-07-20T04:32:42.425Z,101781.59
2018-07-20T04:35:11.472Z,101774.81
2018-07-20T04:37:40.613Z,101777.80
2018-07-20T04:40:09.450Z,101775.84
2018-07-20T04:42:38.188Z,101781.70
2018-07-20T04:45:07.138Z,101780.42
2018-07-20T04:47:35.916Z,101777.37
2018-07-20T04:50:05.639Z,101777.31
2018-07-20T04:52:34.467Z,101781.39
2018-07-20T04:55:03.371Z,101775.56
2018-07-20T04:57:32.180Z,101765.39
2018-07-20T05:00:00.965Z,101766.72
2018-07-20T05:02:29.808Z,101772.19
2018-07-20T05:04:58.607Z,101765.87
2018-07-20T05:07:27.455Z,101765.47
2018-07-20T05:09:56.070Z,101766.05
2018-07-20T05:12:24.888Z,101763.16
2018-07-20T05:14:53.744Z,101775.94
2018-07-20T05:17:22.535Z,101768.41
2018-07-20T05:19:51.363Z,101758.70
2018-07-20T05:22:20.166Z,101759.16
2018-07-20T05:24:48.976Z,101761.45
2018-07-20T05:27:17.840Z,101758.04
2018-07-20T05:29:46.594Z,101759.53
2018-07-20T05:32:15.436Z,101762.31
2018-07-20T05:34:44.219Z,101756.86
2018-07-20T05:37:13.084Z,101763.63
2018-07-20T05:39:41.943Z,101760.88
2018-07-20T05:42:10.799Z,101756.59
2018-07-20T05:44:39.583Z,101759.14
2018-07-20T05:47:08.403Z,101762.91
2018-07-20T05:49:37.034Z,101763.66
2018-07-20T05:52:05.746Z,101757.74
2018-07-20T05:54:34.591Z,101764.03
2018-07-20T05:57:03.374Z,101767.32
2018-07-20T05:59:32.414Z,101762.09
2018-07-20T06:02:01.546Z,101755.22
2018-07-20T06:04:30.436Z,101753.69
2018-07-20T06:06:59.042Z,101756.87
2018-07-20T06:09:27.851Z,101754.18
2018-07-20T06:11:56.652Z,101762.72
2018-07-20T06:14:25.464Z,101758.16
2018-07-20T06:16:54.398Z,101753.22
2018-07-20T06:19:23.253Z,101755.89
2018-07-20T06:21:52.044Z,101754.03
2018-07-20T06:24:20.903Z,101756.44
2018-07-20T06:26:49.685Z,101753.27
2018-07-20T06:29:18.394Z,101749.98
2018-07-20T06:31:47.307Z,101752.14
2018-07-20T06:34:16.120Z,101746.34
2018-07-20T06:36:44.710Z,101751.14
2018-07-20T06:39:13.373Z,101744.41
2018-07-20T06:41:42.443Z,101754.55
2018-07-20T06:44:11.331Z,101750.42
2018-07-20T06:46:40.127Z,101749.11
2018-07-20T06:49:08.949Z,101759.04
2018-07-20T06:51:37.815Z,101754.32
2018-07-20T06:54:06.686Z,101751.72
2018-07-20T06:56:35.539Z,101754.20
2018-07-20T06:59:04.475Z,101754.59
2018-07-20T07:01:33.627Z,101762.73
2018-07-20T07:04:02.473Z,101752.30
2018-07-20T07:06:31.367Z,101754.46
2018-07-20T07:09:00.160Z,101751.89
2018-07-20T07:11:29.055Z,101749.37
2018-07-20T07:13:57.839Z,101753.11
2018-07-20T07:16:26.515Z,101748.46
2018-07-20T07:18:55.423Z,101749.95
2018-07-20T07:21:24.307Z,101748.53
2018-07-20T07:23:53.062Z,101749.11
2018-07-20T07:26:21.867Z,101755.13
2018-07-20T07:28:50.741Z,101752.66
2018-07-20T07:31:19.672Z,101748.52
2018-07-20T07:33:48.448Z,101748.67
2018-07-20T07:36:17.324Z,101747.64
2018-07-20T07:38:46.135Z,101757.25
2018-07-20T07:41:14.917Z,101751.27
2018-07-20T07:43:43.778Z,101754.03
2018-07-20T07:46:12.565Z,101752.63
2018-07-20T07:48:41.392Z,101746.39
2018-07-20T07:51:10.164Z,101748.84
2018-07-20T07:53:38.976Z,101743.73
2018-07-20T07:56:07.713Z,101736.73
2018-07-20T07:58:36.634Z,101743.99
2018-07-20T08:01:05.491Z,101748.95
2018-07-20T08:03:34.434Z,101735.25
2018-07-20T08:06:03.179Z,101736.87
2018-07-20T08:08:32.072Z,101734.31
2018-07-20T08:11:00.888Z,101729.55
2018-07-20T08:13:29.715Z,101734.71
2018-07-20T08:15:58.512Z,101729.72
2018-07-20T08:18:27.406Z,101732.81
2018-07-20T08:20:56.404Z,101723.23
2018-07-20T08:23:25.242Z,101723.11
2018-07-20T08:25:54.015Z,101728.97
2018-07-20T08:28:22.848Z,101723.36
2018-07-20T08:30:51.620Z,101725.92
2018-07-20T08:33:20.482Z,101723.44
2018-07-20T08:35:49.249Z,101720.31
2018-07-20T08:38:18.058Z,101716.52
2018-07-20T08:40:46.919Z,101716.28
2018-07-20T08:43:15.700Z,101711.77
2018-07-20T08:45:50.555Z,101708.71
2018-07-20T08:48:19.324Z,101706.52
2018-07-20T08:50:48.153Z,101714.00
2018-07-20T08:53:16.973Z,101705.05
2018-07-20T08:55:45.677Z,101699.70
2018-07-20T08:58:14.452Z,101703.89
2018-07-20T09:00:43.315Z,101698.79
2018-07-20T09:03:12.069Z,101701.09
2018-07-20T09:05:40.939Z,101695.47
2018-07-20T09:08:09.790Z,101700.56
2018-07-20T09:10:38.445Z,101692.11
2018-07-20T09:13:07.261Z,101686.11
2018-07-20T09:15:36.205Z,101691.14
2018-07-20T09:18:05.027Z,101687.05
2018-07-20T09:20:34.014Z,101688.24
2018-07-20T09:23:03.027Z,101688.08
2018-07-20T09:25:31.692Z,101685.46
2018-07-20T09:28:00.558Z,101690.08
2018-07-20T09:30:29.396Z,101686.31
2018-07-20T09:32:58.302Z,101678.26
2018-07-20T09:35:27.127Z,101681.25
2018-07-20T09:37:56.339Z,101685.69
2018-07-20T09:40:25.245Z,101681.82
2018-07-20T09:42:54.156Z,101676.86
2018-07-20T09:45:28.980Z,101682.98
2018-07-20T09:47:57.808Z,101677.41
2018-07-20T09:50:26.571Z,101677.95
2018-07-20T09:52:55.383Z,101674.19
2018-07-20T09:55:24.283Z,101678.30
2018-07-20T09:57:53.098Z,101680.31
2018-07-20T10:00:27.507Z,101674.13
2018-07-20T10:02:56.476Z,101673.09
2018-07-20T10:05:25.378Z,101668.78
2018-07-20T10:07:54.248Z,101663.02
2018-07-20T10:10:22.881Z,101664.58
2018-07-20T10:12:51.715Z,101672.41
2018-07-20T10:15:20.520Z,101655.89
2018-07-20T10:17:49.439Z,101664.79
2018-07-20T10:20:18.279Z,101655.73
2018-07-20T10:22:47.167Z,101659.35
2018-07-20T10:25:15.917Z,101655.69
2018-07-20T10:30:13.603Z,101645.05
2018-07-20T10:32:42.412Z,101644.45
2018-07-20T10:35:11.196Z,101636.33
2018-07-20T10:37:40.018Z,101638.27
2018-07-20T10:40:08.852Z,101636.93
2018-07-20T10:42:37.705Z,101630.53
2018-07-20T10:45:06.915Z,101629.72
2018-07-20T10:47:35.726Z,101621.95
2018-07-20T10:50:05.224Z,101625.67
2018-07-20T10:52:34.065Z,101616.09
2018-07-20T10:55:02.981Z,101617.14
2018-07-20T10:57:31.759Z,101614.42
2018-07-20T11:00:00.631Z,101608.87
2018-07-20T11:02:29.479Z,101605.98
2018-07-20T11:04:58.307Z,101604.89
2018-07-20T11:07:27.149Z,101606.04
2018-07-20T11:09:56.039Z,101607.45
2018-07-20T11:12:24.685Z,101613.13
2018-07-20T11:14:53.502Z,101607.34
2018-07-20T11:17:22.274Z,101609.72
2018-07-20T11:19:51.252Z,101609.36
2018-07-20T11:22:20.069Z,101600.45
2018-07-20T11:24:48.918Z,101606.08
2018-07-20T11:27:17.708Z,101602.04
2018-07-20T11:29:46.560Z,101593.66
2018-07-20T11:32:15.741Z,101599.59
2018-07-20T11:34:44.602Z,101593.55
2018-07-20T11:37:13.459Z,101586.56
2018-07-20T11:39:42.299Z,101584.16
2018-07-20T11:42:11.200Z,101582.43
2018-07-20T11:44:40.038Z,101582.78
2018-07-20T11:47:09.254Z,101581.78
2018-07-20T11:49:38.069Z,101578.94
2018-07-20T11:52:06.886Z,101576.13
2018-07-20T11:54:35.489Z,101567.70
2018-07-20T11:57:04.357Z,101573.47
2018-07-20T11:59:33.531Z,101567.32
2018-07-20T12:02:02.350Z,101568.52
2018-07-20T12:04:31.010Z,101565.84
2018-07-20T12:06:59.874Z,101561.50
2018-07-20T12:09:29.103Z,101556.70
2018-07-20T12:11:57.939Z,101558.93
2018-07-20T12:14:26.724Z,101551.73
2018-07-20T12:16:55.616Z,101565.75
2018-07-20T12:19:24.476Z,101556.13
2018-07-20T12:21:53.740Z,101555.86
2018-07-20T12:24:22.494Z,101553.44
2018-07-20T12:26:51.121Z,101555.67
2018-07-20T12:29:19.903Z,101539.96
2018-07-20T12:31:48.781Z,101545.34
2018-07-20T12:34:17.485Z,101541.53
2018-07-20T12:36:46.327Z,101547.27
2018-07-20T12:39:15.177Z,101546.55
2018-07-20T12:41:43.996Z,101531.95
2018-07-20T12:44:12.815Z,101533.27
2018-07-20T12:46:41.708Z,101539.48
2018-07-20T12:49:10.365Z,101537.14
2018-07-20T12:51:39.130Z,101537.48
2018-07-20T12:54:07.950Z,101525.11
2018-07-20T12:56:36.788Z,101531.42
2018-07-20T12:59:05.752Z,101526.43
2018-07-20T13:01:34.529Z,101527.22
2018-07-20T13:04:03.414Z,101525.34
2018-07-20T13:06:32.198Z,101528.41
2018-07-20T13:09:00.989Z,101525.59
2018-07-20T13:11:30.237Z,101520.52
2018-07-20T13:13:59.070Z,101512.23
2018-07-20T13:16:27.846Z,101515.58
2018-07-20T13:18:57.583Z,101506.41
2018-07-20T13:21:26.342Z,101509.70
2018-07-20T13:23:55.463Z,101515.16
2018-07-20T13:26:24.503Z,101514.52
2018-07-20T13:28:53.327Z,101505.83
2018-07-20T13:31:22.101Z,101502.48
2018-07-20T13:33:50.920Z,101498.77
2018-07-20T13:36:19.823Z,101503.16
2018-07-20T13:38:48.563Z,101501.06
2018-07-20T13:41:17.411Z,101503.16
2018-07-20T13:43:46.196Z,101488.04
2018-07-20T13:46:15.063Z,101487.66
2018-07-20T13:48:43.938Z,101493.56
2018-07-20T13:51:12.784Z,101487.75
2018-07-20T13:53:41.394Z,101477.98
2018-07-20T13:56:10.212Z,101477.42
2018-07-20T13:58:39.016Z,101472.03
2018-07-20T14:01:07.905Z,101465.48
2018-07-20T14:03:36.702Z,101464.55
2018-07-20T14:06:06.188Z,101456.56
2018-07-20T14:08:35.024Z,101456.59
2018-07-20T14:11:03.882Z,101448.48
2018-07-20T14:13:32.747Z,101449.82
2018-07-20T14:16:01.623Z,101453.34
2018-07-20T14:18:30.404Z,101450.92
2018-07-20T14:20:59.378Z,101450.41
2018-07-20T14:23:28.233Z,101442.63
2018-07-20T14:25:57.132Z,101445.03
2018-07-20T14:28:25.908Z,101439.77
2018-07-20T14:30:54.830Z,101435.84
2018-07-20T14:33:23.816Z,101428.70
2018-07-20T14:35:52.610Z,101432.93
2018-07-20T14:38:21.527Z,101434.14
2018-07-20T14:40:50.601Z,101423.06
2018-07-20T14:43:19.446Z,101415.45
2018-07-20T14:45:51.211Z,101417.06
2018-07-20T14:48:19.814Z,101420.27
2018-07-20T14:50:48.691Z,101421.61
2018-07-20T14:53:17.528Z,101413.52
2018-07-20T14:55:46.328Z,101415.04
2018-07-20T14:58:15.326Z,101412.78
2018-07-20T15:00:44.148Z,101409.70
2018-07-20T15:03:13.034Z,101410.97
2018-07-20T15:05:41.808Z,101410.97
2018-07-20T15:08:10.591Z,101405.72
2018-07-20T15:10:39.299Z,101404.08
2018-07-20T15:13:08.100Z,101404.27
2018-07-20T15:15:36.951Z,101398.64
2018-07-20T15:18:05.962Z,101402.97
2018-07-20T15:20:34.677Z,101401.00
2018-07-20T15:23:03.491Z,101400.88
2018-07-20T15:25:32.250Z,101396.55
2018-07-20T15:28:01.134Z,101390.10
2018-07-20T15:30:29.920Z,101392.73
2018-07-20T15:32:58.671Z,101387.36
2018-07-20T15:35:27.462Z,101385.63
2018-07-20T15:37:56.258Z,101382.55
2018-07-20T15:40:25.267Z,101381.42
2018-07-20T15:42:54.044Z,101376.02
2018-07-20T15:45:29.052Z,101374.98
2018-07-20T15:47:57.844Z,101372.45
2018-07-20T15:50:26.770Z,101370.31
2018-07-20T15:53:36.265Z,101366.68
2018-07-20T15:55:24.253Z,101360.77
2018-07-20T15:57:53.144Z,101361.20
2018-07-20T16:00:21.789Z,101360.17
2018-07-20T16:02:50.612Z,101358.39
2018-07-20T16:05:19.257Z,101353.25
2018-07-20T16:07:48.035Z,101347.36
2018-07-20T16:10:16.838Z,101342.98
2018-07-20T16:12:45.605Z,101340.78
2018-07-20T16:15:14.579Z,101343.67
2018-07-20T16:17:43.358Z,101341.91
2018-07-20T16:20:12.566Z,101332.14
2018-07-20T16:22:41.361Z,101336.27
2018-07-20T16:25:10.215Z,101329.33
2018-07-20T16:27:39.083Z,101333.31
2018-07-20T16:30:07.957Z,101327.66
2018-07-20T16:32:36.995Z,101327.98
2018-07-20T16:35:05.970Z,101320.63
2018-07-20T16:37:34.861Z,101319.22
2018-07-20T16:40:04.019Z,101320.30
2018-07-20T16:42:32.806Z,101322.33
2018-07-20T16:45:01.584Z,101316.41
2018-07-20T16:47:30.278Z,101317.95
2018-07-20T16:49:59.050Z,101313.30
2018-07-20T16:52:28.028Z,101307.00
2018-07-20T16:54:56.846Z,101306.73
2018-07-20T16:57:25.722Z,101310.30
2018-07-20T16:59:54.490Z,101309.69
2018-07-20T17:02:23.349Z,101307.13
2018-07-20T17:04:52.273Z,101297.02
2018-07-20T17:07:21.092Z,101304.69
2018-07-20T17:09:49.702Z,101302.42
2018-07-20T17:12:18.550Z,101300.22
2018-07-20T17:14:47.327Z,101304.48
2018-07-20T17:17:16.251Z,101302.41
2018-07-20T17:19:44.927Z,101305.45
2018-07-20T17:22:13.847Z,101302.81
2018-07-20T17:24:42.663Z,101299.34
2018-07-20T17:27:11.552Z,101306.95
2018-07-20T17:29:40.978Z,101300.75
2018-07-20T17:32:09.952Z,101301.80
2018-07-20T17:34:39.043Z,101301.13
2018-07-20T17:37:07.900Z,101298.79
2018-07-20T17:39:36.553Z,101297.95
2018-07-20T17:42:06.082Z,101298.86
2018-07-20T17:44:34.951Z,101302.97
2018-07-20T17:47:03.787Z,101299.73
2018-07-20T17:49:32.583Z,101304.09
2018-07-20T17:52:01.596Z,101305.91
2018-07-20T17:54:30.779Z,101310.90
2018-07-20T17:56:59.764Z,101309.16
2018-07-20T17:59:28.650Z,101309.08
2018-07-20T18:01:57.422Z,101302.63
2018-07-20T18:04:26.883Z,101300.77
2018-07-20T18:06:55.755Z,101296.62
2018-07-20T18:09:24.812Z,101294.44
2018-07-20T18:11:53.672Z,101296.97
2018-07-20T18:14:22.916Z,101298.47
2018-07-20T18:16:51.983Z,101297.59
2018-07-20T18:19:20.920Z,101300.75
2018-07-20T18:21:49.577Z,101302.52
2018-07-20T18:24:18.817Z,101297.48
2018-07-20T18:26:47.687Z,101296.56
2018-07-20T18:29:16.480Z,101291.63
2018-07-20T18:31:45.408Z,101293.22
2018-07-20T18:34:14.221Z,101295.48
2018-07-20T18:36:43.127Z,101295.42
2018-07-20T18:39:12.532Z,101295.50
2018-07-20T18:41:41.700Z,101288.13
2018-07-20T18:44:10.784Z,101282.89
2018-07-20T18:46:39.662Z,101294.31
2018-07-20T18:49:08.719Z,101292.16
2018-07-20T18:51:37.567Z,101279.80
2018-07-20T18:54:06.496Z,101288.08
2018-07-20T18:56:36.151Z,101290.20
2018-07-20T18:59:05.030Z,101293.87
2018-07-20T19:01:33.665Z,101289.08
2018-07-20T19:04:02.588Z,101287.39
2018-07-20T19:06:31.419Z,101290.87
2018-07-20T19:09:00.281Z,101287.47
2018-07-20T19:11:29.260Z,101287.41
2018-07-20T19:13:58.021Z,101286.34
2018-07-20T19:16:26.952Z,101290.72
2018-07-20T19:18:56.744Z,101285.21
2018-07-20T19:21:25.735Z,101285.55
2018-07-20T19:23:55.778Z,101283.56
2018-07-20T19:26:25.227Z,101290.50
2018-07-20T19:28:54.028Z,101286.65
2018-07-20T19:31:22.818Z,101293.61
2018-07-20T19:33:51.703Z,101298.44
2018-07-20T19:36:20.875Z,101302.17
2018-07-20T19:38:49.923Z,101303.09
2018-07-20T19:41:18.724Z,101301.17
2018-07-20T19:43:47.563Z,101311.77
2018-07-20T19:46:17.133Z,101307.53
2018-07-20T19:48:45.948Z,101314.83
2018-07-20T19:51:14.704Z,101318.16
2018-07-20T19:53:43.867Z,101324.52
2018-07-20T19:56:13.296Z,101319.39
2018-07-20T19:58:42.675Z,101322.08
2018-07-20T20:01:12.164Z,101331.30
2018-07-20T20:03:41.022Z,101329.87
2018-07-20T20:06:09.782Z,101330.53
2018-07-20T20:08:38.919Z,101335.73
2018-07-20T20:11:08.448Z,101342.21
2018-07-20T20:13:37.507Z,101346.14
2018-07-20T20:16:06.331Z,101338.27
2018-07-20T20:18:35.219Z,101343.00
2018-07-20T20:21:04.066Z,101344.38
2018-07-20T20:23:32.903Z,101342.81
2018-07-20T20:26:02.567Z,101343.69
2018-07-20T20:28:31.340Z,101345.56
2018-07-20T20:31:00.165Z,101346.84
2018-07-20T20:33:28.963Z,101352.83
2018-07-20T20:35:58.074Z,101360.05
2018-07-20T20:38:27.395Z,101361.50
2018-07-20T20:40:56.235Z,101368.16
2018-07-20T20:43:25.424Z,101375.05
2018-07-20T20:45:54.263Z,101374.73
2018-07-20T20:48:23.121Z,101379.74
2018-07-20T20:50:51.946Z,101377.61
2018-07-20T20:53:20.772Z,101374.93
2018-07-20T20:55:49.652Z,101373.53
2018-07-20T20:58:18.414Z,101367.16
2018-07-20T21:00:47.324Z,101363.44
2018-07-20T21:03:16.178Z,101360.66
2018-07-20T21:05:44.980Z,101364.55
2018-07-20T21:08:13.587Z,101362.47
2018-07-20T21:10:42.398Z,101362.59
2018-07-20T21:13:11.043Z,101363.58
2018-07-20T21:15:39.860Z,101370.73
2018-07-20T21:18:08.723Z,101366.95
2018-07-20T21:20:37.620Z,101368.17
2018-07-20T21:23:06.409Z,101373.41
2018-07-20T21:25:35.344Z,101369.60
2018-07-20T21:28:04.135Z,101365.86
2018-07-20T21:30:32.898Z,101369.47
2018-07-20T21:33:01.760Z,101367.09
2018-07-20T21:35:30.368Z,101364.88
2018-07-20T21:37:59.280Z,101370.50
2018-07-20T21:40:28.022Z,101366.66
2018-07-20T21:42:56.828Z,101372.05
2018-07-20T21:45:31.696Z,101365.64
2018-07-20T21:48:00.634Z,101363.56
2018-07-20T21:50:29.243Z,101361.06
2018-07-20T21:52:58.064Z,101369.47
2018-07-20T21:55:26.903Z,101362.48
2018-07-20T21:57:55.719Z,101364.70
2018-07-20T22:00:24.629Z,101359.16
2018-07-20T22:02:53.480Z,101365.64
2018-07-20T22:05:22.057Z,101366.28
2018-07-20T22:07:50.868Z,101366.33
2018-07-20T22:10:19.671Z,101361.43
2018-07-20T22:12:48.839Z,101362.05
2018-07-20T22:15:17.595Z,101362.20
2018-07-20T22:17:46.427Z,101364.61
2018-07-20T22:20:15.234Z,101366.22
2018-07-20T22:22:44.041Z,101360.70
2018-07-20T22:25:12.944Z,101350.24
2018-07-20T22:27:41.709Z,101360.55
2018-07-20T22:30:10.599Z,101361.02
2018-07-20T22:32:39.380Z,101360.80
2018-07-20T22:35:08.684Z,101362.03
2018-07-20T22:37:37.530Z,101358.09
2018-07-20T22:40:06.876Z,101368.56
2018-07-20T22:42:35.722Z,101368.00
2018-07-20T22:45:04.649Z,101366.22
2018-07-20T22:47:33.235Z,101367.61
2018-07-20T22:50:02.195Z,101364.25
2018-07-20T22:52:30.948Z,101366.44
2018-07-20T22:54:59.731Z,101367.64
2018-07-20T22:57:28.606Z,101363.13
2018-07-20T22:59:57.225Z,101367.47
2018-07-20T23:02:26.192Z,101361.94
2018-07-20T23:04:54.987Z,101365.91
2018-07-20T23:07:23.813Z,101369.44
2018-07-20T23:09:52.656Z,101364.91
2018-07-20T23:12:21.282Z,101355.63
2018-07-20T23:14:50.021Z,101358.22
2018-07-20T23:17:18.932Z,101362.13
2018-07-20T23:19:47.728Z,101351.25
2018-07-20T23:22:16.570Z,101358.00
2018-07-20T23:24:45.344Z,101355.45
2018-07-20T23:27:14.321Z,101361.17
2018-07-20T23:29:43.102Z,101356.22
2018-07-20T23:32:11.999Z,101348.16
2018-07-20T23:34:40.748Z,101350.50
2018-07-20T23:37:09.570Z,101342.21
2018-07-20T23:39:38.395Z,101341.63
2018-07-20T23:42:07.207Z,101339.04
2018-07-20T23:44:35.990Z,101341.59
2018-07-20T23:47:04.972Z,101343.02
2018-07-20T23:49:33.754Z,101351.52
2018-07-20T23:52:02.637Z,101358.44
2018-07-20T23:54:31.387Z,101358.02
2018-07-20T23:57:00.222Z,101359.64
2018-07-20T23:59:28.978Z,101354.12
